Weather Data

Pearl Creek Farm: 8878 N Farm Road 75, Walnut Grove MO 65770

<== Previous Day (Friday 11 Aug 2017) | Next Day (Sunday 13 Aug 2017) ==>

Summary Precipitation Data For Saturday 12 August 2017

ElementValueUnits
Precipitation0"
NotesAny precipitation for this day was included with a multiple-day report on 14 August 2017.
SourcePearl Creek Farm

Summary Temperature Data For Saturday 12 August 2017

ElementValueUnits
High Temperature77 oF
Low Temperature66 oF
Average Temperature71 oF
High Humidity100 %
Low Humidity60 %
Average Humidity78 %
SourceSpringfield-Branson National Airport (SGF)

Detail Temperature Data For Saturday 12 August 2017

Date / TimeTemp (F)RH (%)Dew Pt (F)Report Date / TimeSource
2017-08-12 00:52:00 67 100 67.0 2017-12-29 17:00:26.17417 Springfield-Branson National Airport (SGF)
2017-08-12 01:52:00 68 96 67.0 2017-12-29 17:00:26.17417 Springfield-Branson National Airport (SGF)
2017-08-12 02:52:00 68 96 67.0 2017-12-29 17:00:26.17417 Springfield-Branson National Airport (SGF)
2017-08-12 03:52:00 68 96 67.0 2017-12-29 17:00:26.17417 Springfield-Branson National Airport (SGF)
2017-08-12 04:52:00 66 100 66.0 2017-12-29 17:00:26.17417 Springfield-Branson National Airport (SGF)
2017-08-12 05:52:00 67 93 65.0 2017-12-29 17:00:26.17417 Springfield-Branson National Airport (SGF)
2017-08-12 06:52:00 68 90 65.0 2017-12-29 17:00:26.17417 Springfield-Branson National Airport (SGF)
2017-08-12 07:52:00 70 87 66.0 2017-12-29 17:00:26.17417 Springfield-Branson National Airport (SGF)
2017-08-12 08:52:00 72 73 63.0 2017-12-29 17:00:26.17417 Springfield-Branson National Airport (SGF)
2017-08-12 09:52:00 75 64 62.0 2017-12-29 17:00:26.17417 Springfield-Branson National Airport (SGF)
2017-08-12 10:52:00 75 64 62.0 2017-12-29 17:00:26.17417 Springfield-Branson National Airport (SGF)
2017-08-12 11:52:00 76 60 61.0 2017-12-29 17:00:26.17417 Springfield-Branson National Airport (SGF)
2017-08-12 12:52:00 77 60 62.0 2017-12-29 17:00:26.17417 Springfield-Branson National Airport (SGF)
2017-08-12 13:52:00 77 64 64.0 2017-12-29 17:00:26.17417 Springfield-Branson National Airport (SGF)
2017-08-12 14:52:00 77 60 62.0 2017-12-29 17:00:26.17417 Springfield-Branson National Airport (SGF)
2017-08-12 15:52:00 75 66 63.0 2017-12-29 17:00:26.17417 Springfield-Branson National Airport (SGF)
2017-08-12 16:52:00 74 71 64.0 2017-12-29 17:00:26.17417 Springfield-Branson National Airport (SGF)
2017-08-12 17:52:00 74 71 64.0 2017-12-29 17:00:26.17417 Springfield-Branson National Airport (SGF)
2017-08-12 18:52:00 73 69 62.0 2017-12-29 17:00:26.17417 Springfield-Branson National Airport (SGF)
2017-08-12 19:52:00 71 73 62.0 2017-12-29 17:00:26.17417 Springfield-Branson National Airport (SGF)
2017-08-12 20:52:00 70 76 62.0 2017-12-29 17:00:26.17417 Springfield-Branson National Airport (SGF)
2017-08-12 21:52:00 68 84 63.0 2017-12-29 17:00:26.17417 Springfield-Branson National Airport (SGF)
2017-08-12 22:52:00 69 81 63.0 2017-12-29 17:00:26.17417 Springfield-Branson National Airport (SGF)
2017-08-12 23:52:00 70 73 61.0 2017-12-29 17:00:26.17417 Springfield-Branson National Airport (SGF)

A total of 24 rows are displayed.